createdAt,value
2023-05-19T00:01:56.213Z,15.26
2023-05-19T00:04:28.700Z,15.23
2023-05-19T00:07:02.971Z,15.20
2023-05-19T00:09:35.452Z,15.19
2023-05-19T00:12:08.362Z,15.12
2023-05-19T00:14:40.754Z,15.10
2023-05-19T00:17:13.225Z,15.09
2023-05-19T00:19:45.349Z,15.06
2023-05-19T00:22:17.407Z,15.00
2023-05-19T00:24:49.368Z,14.98
2023-05-19T00:27:21.326Z,14.98
2023-05-19T00:29:53.290Z,14.95
2023-05-19T00:32:25.316Z,14.76
2023-05-19T00:34:57.619Z,14.89
2023-05-19T00:37:29.646Z,14.87
2023-05-19T00:40:01.619Z,14.86
2023-05-19T00:42:33.964Z,14.83
2023-05-19T00:45:07.007Z,14.71
2023-05-19T00:47:39.952Z,14.73
2023-05-19T00:50:12.004Z,14.72
2023-05-19T00:52:44.186Z,14.70
2023-05-19T00:55:16.522Z,14.66
2023-05-19T00:57:50.404Z,14.61
2023-05-19T01:00:22.818Z,14.57
2023-05-19T01:02:56.181Z,14.59
2023-05-19T01:05:28.229Z,14.59
2023-05-19T01:08:00.371Z,14.59
2023-05-19T01:10:32.503Z,14.56
2023-05-19T01:13:06.616Z,14.53
2023-05-19T01:16:02.279Z,14.49
2023-05-19T01:19:10.895Z,14.44
2023-05-19T01:22:01.299Z,14.39
2023-05-19T01:25:11.330Z,14.34
2023-05-19T01:28:10.531Z,14.31
2023-05-19T01:30:45.043Z,14.33
2023-05-19T01:33:18.960Z,14.34
2023-05-19T01:35:53.465Z,14.31
2023-05-19T01:38:28.568Z,14.27
2023-05-19T01:41:04.092Z,14.12
2023-05-19T01:43:36.465Z,14.26
2023-05-19T01:46:09.193Z,14.23
2023-05-19T01:48:44.774Z,14.22
2023-05-19T01:51:17.112Z,14.21
2023-05-19T01:53:49.181Z,14.17
2023-05-19T01:56:53.765Z,14.10
2023-05-19T02:00:07.890Z,14.04
2023-05-19T02:03:18.045Z,14.05
2023-05-19T02:05:58.908Z,14.01
2023-05-19T02:08:42.840Z,14.00
2023-05-19T02:11:44.654Z,13.97
2023-05-19T02:14:29.933Z,13.99
2023-05-19T02:17:05.338Z,13.86
2023-05-19T02:19:40.162Z,13.96
2023-05-19T02:22:12.226Z,13.94
2023-05-19T02:24:46.599Z,13.93
2023-05-19T02:27:19.064Z,13.90
2023-05-19T02:29:51.011Z,13.92
2023-05-19T02:32:23.117Z,13.85
2023-05-19T02:34:56.544Z,13.86
2023-05-19T02:37:29.332Z,13.83
2023-05-19T02:40:01.324Z,13.81
2023-05-19T02:42:33.323Z,13.83
2023-05-19T02:45:06.053Z,13.84
2023-05-19T02:47:38.439Z,13.82
2023-05-19T02:50:10.964Z,13.82
2023-05-19T02:52:42.915Z,13.80
2023-05-19T02:55:17.184Z,13.76
2023-05-19T02:57:49.292Z,13.75
2023-05-19T03:00:21.457Z,13.73
2023-05-19T03:02:54.280Z,13.68
2023-05-19T03:05:26.296Z,13.65
2023-05-19T03:07:58.316Z,13.62
2023-05-19T03:10:31.135Z,13.64
2023-05-19T03:13:03.262Z,13.63
2023-05-19T03:15:36.695Z,13.62
2023-05-19T03:18:08.805Z,13.58
2023-05-19T03:20:42.438Z,13.55
2023-05-19T03:23:14.433Z,13.55
2023-05-19T03:25:46.543Z,13.51
2023-05-19T03:28:18.582Z,13.50
2023-05-19T03:30:50.946Z,13.49
2023-05-19T03:33:23.996Z,13.45
2023-05-19T03:35:57.781Z,13.60
2023-05-19T03:38:29.763Z,13.46
2023-05-19T03:41:01.740Z,13.42
2023-05-19T03:43:33.732Z,13.39
2023-05-19T03:46:06.095Z,13.38
2023-05-19T03:48:38.087Z,13.41
2023-05-19T03:51:10.029Z,13.39
2023-05-19T03:53:41.976Z,13.37
2023-05-19T03:56:14.106Z,13.34
2023-05-19T03:58:47.113Z,13.26
2023-05-19T04:01:19.258Z,13.26
2023-05-19T04:03:51.214Z,13.24
2023-05-19T04:06:23.494Z,13.26
2023-05-19T04:08:55.805Z,13.26
2023-05-19T04:11:27.764Z,13.25
2023-05-19T04:13:59.846Z,13.24
2023-05-19T04:16:32.263Z,13.21
2023-05-19T04:19:04.373Z,13.20
2023-05-19T04:21:36.509Z,13.19
2023-05-19T04:24:08.725Z,13.17
2023-05-19T04:26:45.776Z,13.20
2023-05-19T04:29:18.203Z,13.17
2023-05-19T04:31:50.499Z,13.05
2023-05-19T04:34:23.010Z,13.15
2023-05-19T04:36:55.565Z,13.08
2023-05-19T04:39:27.506Z,13.05
2023-05-19T04:42:00.032Z,13.06
2023-05-19T04:44:32.046Z,13.10
2023-05-19T04:47:06.446Z,13.15
2023-05-19T04:49:42.300Z,13.12
2023-05-19T04:52:14.262Z,13.15
2023-05-19T04:54:46.236Z,13.15
2023-05-19T04:57:18.244Z,13.14
2023-05-19T04:59:50.232Z,13.12
2023-05-19T05:02:22.365Z,13.11
2023-05-19T05:04:54.656Z,13.15
2023-05-19T05:07:26.749Z,13.15
2023-05-19T05:09:58.750Z,13.17
2023-05-19T05:12:32.006Z,13.16
2023-05-19T05:15:06.944Z,13.21
2023-05-19T05:17:39.328Z,13.29
2023-05-19T05:20:12.764Z,13.33
2023-05-19T05:22:45.206Z,13.41
2023-05-19T05:25:18.404Z,13.37
2023-05-19T05:27:50.797Z,13.52
2023-05-19T05:30:22.721Z,13.53
2023-05-19T05:32:54.749Z,13.66
2023-05-19T05:35:26.777Z,13.78
2023-05-19T05:37:58.821Z,13.89
2023-05-19T05:40:30.935Z,13.97
2023-05-19T05:43:02.905Z,14.01
2023-05-19T05:45:35.020Z,14.11
2023-05-19T05:48:07.891Z,14.26
2023-05-19T05:50:41.262Z,14.37
2023-05-19T05:53:19.866Z,14.45
2023-05-19T05:55:53.605Z,14.50
2023-05-19T05:58:25.928Z,14.57
2023-05-19T06:00:57.920Z,14.71
2023-05-19T06:03:32.026Z,14.82
2023-05-19T06:06:04.671Z,14.83
2023-05-19T06:08:36.752Z,14.92
2023-05-19T06:11:09.407Z,14.98
2023-05-19T06:13:41.617Z,15.01
2023-05-19T06:16:13.637Z,14.75
2023-05-19T06:18:45.678Z,14.89
2023-05-19T06:21:17.741Z,14.97
2023-05-19T06:23:49.733Z,15.05
2023-05-19T06:26:22.215Z,15.14
2023-05-19T06:28:54.128Z,15.30
2023-05-19T06:31:26.646Z,15.45
2023-05-19T06:33:58.922Z,15.61
2023-05-19T06:36:31.396Z,15.84
2023-05-19T06:39:03.694Z,15.99
2023-05-19T06:41:35.644Z,16.14
2023-05-19T06:44:09.146Z,16.23
2023-05-19T06:46:41.176Z,16.33
2023-05-19T06:49:13.317Z,16.22
2023-05-19T06:51:45.409Z,16.46
2023-05-19T06:54:17.396Z,16.44
2023-05-19T06:56:49.419Z,16.42
2023-05-19T06:59:22.742Z,16.42
2023-05-19T07:01:54.746Z,16.53
2023-05-19T07:04:27.317Z,16.66
2023-05-19T07:06:59.442Z,16.72
2023-05-19T07:09:31.521Z,16.82
2023-05-19T07:12:03.676Z,16.99
2023-05-19T07:14:36.539Z,17.17
2023-05-19T07:17:08.652Z,17.37
2023-05-19T07:19:40.795Z,17.47
2023-05-19T07:22:12.772Z,17.54
2023-05-19T07:24:44.758Z,17.67
2023-05-19T07:27:16.688Z,17.78
2023-05-19T07:29:48.588Z,17.87
2023-05-19T07:32:20.645Z,18.00
2023-05-19T07:34:52.944Z,18.19
2023-05-19T07:37:25.037Z,18.40
2023-05-19T07:39:57.067Z,18.52
2023-05-19T07:42:29.063Z,18.59
2023-05-19T07:45:01.318Z,18.59
2023-05-19T07:47:33.444Z,18.64
2023-05-19T07:50:06.241Z,18.68
2023-05-19T07:52:38.238Z,18.71
2023-05-19T07:55:11.636Z,18.69
2023-05-19T07:57:43.626Z,18.71
2023-05-19T08:00:16.981Z,18.86
2023-05-19T08:02:49.073Z,18.83
2023-05-19T08:05:21.208Z,18.79
2023-05-19T08:07:53.208Z,18.80
2023-05-19T08:10:25.249Z,18.77
2023-05-19T08:12:57.171Z,18.79
2023-05-19T08:15:29.191Z,18.77
2023-05-19T08:18:01.753Z,18.85
2023-05-19T08:20:34.302Z,18.98
2023-05-19T08:23:06.554Z,19.19
2023-05-19T08:25:38.500Z,19.31
2023-05-19T08:28:10.791Z,19.55
2023-05-19T08:30:42.932Z,19.68
2023-05-19T08:33:15.014Z,19.79
2023-05-19T08:35:48.052Z,19.77
2023-05-19T08:38:20.120Z,19.84
2023-05-19T08:40:52.534Z,19.85
2023-05-19T08:43:24.578Z,20.01
2023-05-19T08:45:59.461Z,20.23
2023-05-19T08:48:32.632Z,20.39
2023-05-19T08:51:22.364Z,20.59
2023-05-19T08:54:04.500Z,20.87
2023-05-19T08:56:38.070Z,21.17
2023-05-19T08:59:11.371Z,21.29
2023-05-19T09:01:49.001Z,21.37
2023-05-19T09:04:21.207Z,21.40
2023-05-19T09:06:53.391Z,21.47
2023-05-19T09:09:25.683Z,21.56
2023-05-19T09:11:58.353Z,21.53
2023-05-19T09:14:30.874Z,21.43
2023-05-19T09:17:03.404Z,21.39
2023-05-19T09:19:35.699Z,21.36
2023-05-19T09:22:07.749Z,21.30
2023-05-19T09:24:40.716Z,21.19
2023-05-19T09:27:21.119Z,21.20
2023-05-19T09:29:53.117Z,21.31
2023-05-19T09:32:27.228Z,21.40
2023-05-19T09:34:59.417Z,21.29
2023-05-19T09:37:32.263Z,21.28
2023-05-19T09:40:05.435Z,21.45
2023-05-19T09:42:39.321Z,21.54
2023-05-19T09:45:11.924Z,21.69
2023-05-19T09:47:44.057Z,21.79
2023-05-19T09:50:17.052Z,21.84
2023-05-19T09:52:50.397Z,22.02
2023-05-19T09:55:28.752Z,22.08
2023-05-19T09:58:04.073Z,21.97
2023-05-19T10:00:37.982Z,22.04
2023-05-19T10:03:10.440Z,22.15
2023-05-19T10:05:43.914Z,22.23
2023-05-19T10:08:17.931Z,22.34
2023-05-19T10:10:50.183Z,22.52
2023-05-19T10:13:24.148Z,22.59
2023-05-19T10:15:59.768Z,22.61
2023-05-19T10:18:33.721Z,22.65
2023-05-19T10:21:07.342Z,22.64
2023-05-19T10:23:39.472Z,22.69
2023-05-19T10:26:12.810Z,22.79
2023-05-19T10:28:46.047Z,22.81
2023-05-19T10:31:23.207Z,22.95
2023-05-19T10:34:27.932Z,23.28
2023-05-19T10:37:27.090Z,23.94
2023-05-19T10:39:59.900Z,24.05
2023-05-19T10:42:45.361Z,23.82
2023-05-19T10:45:22.709Z,23.70
2023-05-19T10:47:55.396Z,23.74
2023-05-19T10:50:29.896Z,23.84
2023-05-19T10:53:03.082Z,23.86
2023-05-19T10:56:03.675Z,23.79
2023-05-19T10:58:44.624Z,23.77
2023-05-19T11:01:22.183Z,23.84
2023-05-19T11:03:57.508Z,23.76
2023-05-19T11:06:32.469Z,23.64
2023-05-19T11:09:14.579Z,23.65
2023-05-19T11:11:52.197Z,23.71
2023-05-19T11:14:27.384Z,23.70
2023-05-19T11:17:00.931Z,23.81
2023-05-19T11:19:36.174Z,23.86
2023-05-19T11:22:11.110Z,23.86
2023-05-19T11:24:50.638Z,23.71
2023-05-19T11:27:34.418Z,23.54
2023-05-19T11:30:07.590Z,23.46
2023-05-19T11:32:42.646Z,23.40
2023-05-19T11:35:16.737Z,23.54
2023-05-19T11:37:52.347Z,23.53
2023-05-19T11:40:25.364Z,23.44
2023-05-19T11:42:58.057Z,23.61
2023-05-19T11:45:33.132Z,23.67
2023-05-19T11:48:07.076Z,23.63
2023-05-19T11:50:46.841Z,23.72
2023-05-19T11:53:19.936Z,23.71
2023-05-19T11:55:52.397Z,23.76
2023-05-19T11:58:27.965Z,23.80
2023-05-19T12:01:04.533Z,23.83
2023-05-19T12:03:36.882Z,23.73
2023-05-19T12:06:11.010Z,23.69
2023-05-19T12:08:43.032Z,23.66
2023-05-19T12:11:16.989Z,23.63
2023-05-19T12:13:54.539Z,23.69
2023-05-19T12:16:36.349Z,23.85
2023-05-19T12:19:09.683Z,24.14
2023-05-19T12:21:42.162Z,24.25
2023-05-19T12:24:14.506Z,24.38
2023-05-19T12:26:47.212Z,24.30
2023-05-19T12:29:19.226Z,24.31
2023-05-19T12:31:51.295Z,24.29
2023-05-19T12:34:23.534Z,24.25
2023-05-19T12:36:55.762Z,24.29
2023-05-19T12:39:28.892Z,24.36
2023-05-19T12:42:11.028Z,24.45
2023-05-19T12:44:51.590Z,24.52
2023-05-19T12:47:30.858Z,24.63
2023-05-19T12:50:09.311Z,24.62
2023-05-19T12:52:48.061Z,24.61
2023-05-19T12:55:22.213Z,24.80
2023-05-19T12:57:58.186Z,24.87
2023-05-19T13:00:32.541Z,24.91
2023-05-19T13:03:06.710Z,24.94
2023-05-19T13:05:43.746Z,25.00
2023-05-19T13:08:20.304Z,25.06
2023-05-19T13:10:52.466Z,25.05
2023-05-19T13:13:24.584Z,25.02
2023-05-19T13:15:56.643Z,25.09
2023-05-19T13:18:32.067Z,25.07
2023-05-19T13:21:04.428Z,25.17
2023-05-19T13:23:36.684Z,25.26
2023-05-19T13:26:09.120Z,25.25
2023-05-19T13:28:41.090Z,25.18
2023-05-19T13:31:13.105Z,25.02
2023-05-19T13:33:45.054Z,25.09
2023-05-19T13:36:17.051Z,24.88
2023-05-19T13:38:49.007Z,24.84
2023-05-19T13:41:26.232Z,24.81
2023-05-19T13:44:01.281Z,24.96
2023-05-19T13:46:44.805Z,25.07
2023-05-19T13:49:18.490Z,25.05
2023-05-19T13:51:50.516Z,25.09
2023-05-19T13:54:22.597Z,25.07
2023-05-19T13:56:54.696Z,25.06
2023-05-19T13:59:26.802Z,25.13
2023-05-19T14:01:58.977Z,25.12
2023-05-19T14:04:31.033Z,25.19
2023-05-19T14:07:03.054Z,25.13
2023-05-19T14:09:35.089Z,25.02
2023-05-19T14:12:07.409Z,24.92
2023-05-19T14:14:39.418Z,24.92
2023-05-19T14:17:11.989Z,24.95
2023-05-19T14:19:44.010Z,24.92
2023-05-19T14:22:15.985Z,24.89
2023-05-19T14:24:47.970Z,24.77
2023-05-19T14:27:20.018Z,24.66
2023-05-19T14:29:52.002Z,24.69
2023-05-19T14:32:24.323Z,24.79
2023-05-19T14:34:56.314Z,24.76
2023-05-19T14:37:29.050Z,25.11
2023-05-19T14:40:01.256Z,25.24
2023-05-19T14:42:33.242Z,25.25
2023-05-19T14:45:05.858Z,24.91
2023-05-19T14:47:37.986Z,24.94
2023-05-19T14:50:10.158Z,24.92
2023-05-19T14:52:42.118Z,24.93
2023-05-19T14:55:14.083Z,24.87
2023-05-19T14:57:46.432Z,24.78
2023-05-19T15:00:18.938Z,24.80
2023-05-19T15:02:51.059Z,24.82
2023-05-19T15:05:24.303Z,24.60
2023-05-19T15:07:56.539Z,24.52
2023-05-19T15:10:28.624Z,24.53
2023-05-19T15:13:01.731Z,24.62
2023-05-19T15:15:33.773Z,24.62
2023-05-19T15:18:05.984Z,24.50
2023-05-19T15:20:38.070Z,24.72
2023-05-19T15:23:10.083Z,24.48
2023-05-19T15:25:42.256Z,24.46
2023-05-19T15:28:14.506Z,24.54
2023-05-19T15:30:46.644Z,24.58
2023-05-19T15:33:18.875Z,24.62
2023-05-19T15:35:52.272Z,24.63
2023-05-19T15:38:24.341Z,24.59
2023-05-19T15:40:56.332Z,24.51
2023-05-19T15:43:28.265Z,24.43
2023-05-19T15:46:00.420Z,24.37
2023-05-19T15:48:32.650Z,24.40
2023-05-19T15:51:04.971Z,24.38
2023-05-19T15:53:37.950Z,24.30
2023-05-19T15:56:09.956Z,24.30
2023-05-19T15:58:41.960Z,24.25
2023-05-19T16:01:15.572Z,24.22
2023-05-19T16:03:48.041Z,24.03
2023-05-19T16:06:20.173Z,23.91
2023-05-19T16:08:52.215Z,23.72
2023-05-19T16:11:24.357Z,23.60
2023-05-19T16:13:56.319Z,23.49
2023-05-19T16:16:28.350Z,23.56
2023-05-19T16:19:00.370Z,23.59
2023-05-19T16:21:32.603Z,23.71
2023-05-19T16:24:04.911Z,23.74
2023-05-19T16:26:36.864Z,23.73
2023-05-19T16:29:08.854Z,23.77
2023-05-19T16:31:41.045Z,23.74
2023-05-19T16:34:13.063Z,23.78
2023-05-19T16:36:44.971Z,23.83
2023-05-19T16:39:16.921Z,23.81
2023-05-19T16:41:48.857Z,23.66
2023-05-19T16:44:20.918Z,23.51
2023-05-19T16:46:52.930Z,23.50
2023-05-19T16:49:24.899Z,23.55
2023-05-19T16:51:56.888Z,23.56
2023-05-19T16:54:29.216Z,23.56
2023-05-19T16:57:02.361Z,23.51
2023-05-19T16:59:34.339Z,23.54
2023-05-19T17:02:07.448Z,23.57
2023-05-19T17:04:39.406Z,23.60
2023-05-19T17:07:17.640Z,23.52
2023-05-19T17:09:49.736Z,23.53
2023-05-19T17:12:21.765Z,23.39
2023-05-19T17:14:53.814Z,23.48
2023-05-19T17:17:25.869Z,23.56
2023-05-19T17:19:57.872Z,23.54
2023-05-19T17:22:30.477Z,23.47
2023-05-19T17:25:02.451Z,23.39
2023-05-19T17:27:34.399Z,23.36
2023-05-19T17:30:07.503Z,23.35
2023-05-19T17:32:39.797Z,23.24
2023-05-19T17:35:11.929Z,23.16
2023-05-19T17:37:43.904Z,23.03
2023-05-19T17:40:16.043Z,23.11
2023-05-19T17:42:48.058Z,23.13
2023-05-19T17:45:20.259Z,23.10
2023-05-19T17:47:52.389Z,23.08
2023-05-19T17:50:24.466Z,23.09
2023-05-19T17:52:56.912Z,23.04
2023-05-19T17:55:31.016Z,23.11
2023-05-19T17:58:03.373Z,23.11
2023-05-19T18:00:35.988Z,23.07
2023-05-19T18:03:08.780Z,23.00
2023-05-19T18:05:43.326Z,22.92
2023-05-19T18:08:16.649Z,22.88
2023-05-19T18:10:51.626Z,22.80
2023-05-19T18:13:23.896Z,22.77
2023-05-19T18:15:57.082Z,22.73
2023-05-19T18:18:29.084Z,22.68
2023-05-19T18:21:01.025Z,22.67
2023-05-19T18:23:33.260Z,22.68
2023-05-19T18:26:05.399Z,22.66
2023-05-19T18:28:37.458Z,22.62
2023-05-19T18:31:15.665Z,22.56
2023-05-19T18:33:48.156Z,22.52
2023-05-19T18:36:20.335Z,22.48
2023-05-19T18:38:52.541Z,22.43
2023-05-19T18:41:25.175Z,22.42
2023-05-19T18:43:57.313Z,22.38
2023-05-19T18:46:30.066Z,22.31
2023-05-19T18:49:03.731Z,22.31
2023-05-19T18:51:36.143Z,22.25
2023-05-19T18:54:08.422Z,22.21
2023-05-19T18:56:41.372Z,22.17
2023-05-19T18:59:13.513Z,22.11
2023-05-19T19:01:45.840Z,22.08
2023-05-19T19:04:18.271Z,22.03
2023-05-19T19:06:51.259Z,22.00
2023-05-19T19:09:23.336Z,21.97
2023-05-19T19:11:55.411Z,21.93
2023-05-19T19:14:27.381Z,21.88
2023-05-19T19:16:59.351Z,21.85
2023-05-19T19:19:31.461Z,21.79
2023-05-19T19:22:03.574Z,21.75
2023-05-19T19:24:35.958Z,21.68
2023-05-19T19:27:07.936Z,21.64
2023-05-19T19:29:39.905Z,21.60
2023-05-19T19:32:11.889Z,21.53
2023-05-19T19:34:43.831Z,21.51
2023-05-19T19:37:16.598Z,21.45
2023-05-19T19:39:48.643Z,21.39
2023-05-19T19:42:20.590Z,21.30
2023-05-19T19:44:56.069Z,21.30
2023-05-19T19:47:29.293Z,21.54
2023-05-19T19:50:03.581Z,21.24
2023-05-19T19:52:35.644Z,21.19
2023-05-19T19:55:08.636Z,21.13
2023-05-19T19:57:40.756Z,21.10
2023-05-19T20:00:13.538Z,21.05
2023-05-19T20:03:02.989Z,21.02
2023-05-19T20:05:38.415Z,20.94
2023-05-19T20:08:10.702Z,20.92
2023-05-19T20:10:42.674Z,20.86
2023-05-19T20:13:19.072Z,20.79
2023-05-19T20:15:51.234Z,20.74
2023-05-19T20:18:24.773Z,20.67
2023-05-19T20:20:57.059Z,20.62
2023-05-19T20:23:29.023Z,20.57
2023-05-19T20:26:11.744Z,20.51
2023-05-19T20:28:45.361Z,20.46
2023-05-19T20:31:17.310Z,20.42
2023-05-19T20:33:50.029Z,20.37
2023-05-19T20:36:22.011Z,20.30
2023-05-19T20:38:53.955Z,20.20
2023-05-19T20:41:25.880Z,20.05
2023-05-19T20:43:58.073Z,20.10
2023-05-19T20:46:30.227Z,20.13
2023-05-19T20:49:04.052Z,20.11
2023-05-19T20:51:36.086Z,20.08
2023-05-19T20:54:08.204Z,20.32
2023-05-19T20:56:40.355Z,20.03
2023-05-19T20:59:12.844Z,19.96
2023-05-19T21:01:45.987Z,19.95
2023-05-19T21:04:17.990Z,19.94
2023-05-19T21:06:50.068Z,19.90
2023-05-19T21:09:22.490Z,19.81
2023-05-19T21:11:54.471Z,19.84
2023-05-19T21:14:26.552Z,19.76
2023-05-19T21:16:58.694Z,19.76
2023-05-19T21:19:30.837Z,19.73
2023-05-19T21:22:03.038Z,19.70
2023-05-19T21:24:35.041Z,19.68
2023-05-19T21:27:06.976Z,19.63
2023-05-19T21:29:38.947Z,19.67
2023-05-19T21:32:10.910Z,19.61
2023-05-19T21:34:42.921Z,19.61
2023-05-19T21:37:17.111Z,19.60
2023-05-19T21:39:49.260Z,19.55
2023-05-19T21:42:21.265Z,19.53
2023-05-19T21:44:53.770Z,19.52
2023-05-19T21:47:25.782Z,19.50
2023-05-19T21:49:57.765Z,19.48
2023-05-19T21:52:31.327Z,19.44
2023-05-19T21:55:03.531Z,19.42
2023-05-19T21:57:35.616Z,19.39
2023-05-19T22:00:09.137Z,19.34
2023-05-19T22:02:41.196Z,19.35
2023-05-19T22:05:13.285Z,19.33
2023-05-19T22:07:46.301Z,19.32
2023-05-19T22:10:18.340Z,19.24
2023-05-19T22:12:50.386Z,19.29
2023-05-19T22:15:22.455Z,19.26
2023-05-19T22:17:54.479Z,19.25
2023-05-19T22:20:26.475Z,19.25
2023-05-19T22:22:59.489Z,19.22
2023-05-19T22:25:32.157Z,19.20
2023-05-19T22:28:05.658Z,19.17
2023-05-19T22:30:40.983Z,19.13
2023-05-19T22:33:13.520Z,19.08
2023-05-19T22:35:46.025Z,19.09
2023-05-19T22:38:18.022Z,19.07
2023-05-19T22:40:50.057Z,19.01
2023-05-19T22:43:21.973Z,18.97
2023-05-19T22:45:53.957Z,18.99
2023-05-19T22:48:26.109Z,18.94
2023-05-19T22:50:58.256Z,18.86
2023-05-19T22:53:30.216Z,18.84
2023-05-19T22:56:02.180Z,18.80
2023-05-19T22:58:34.232Z,18.82
2023-05-19T23:01:06.313Z,18.80
2023-05-19T23:03:38.371Z,18.78
2023-05-19T23:06:10.634Z,18.76
2023-05-19T23:08:43.498Z,18.73
2023-05-19T23:11:16.717Z,18.73
2023-05-19T23:13:48.686Z,18.70
2023-05-19T23:16:20.739Z,18.63
2023-05-19T23:18:52.771Z,18.61
2023-05-19T23:21:24.870Z,18.55
2023-05-19T23:23:56.898Z,18.59
2023-05-19T23:26:28.860Z,18.61
2023-05-19T23:29:00.924Z,18.58
2023-05-19T23:31:35.058Z,18.57
2023-05-19T23:34:08.913Z,18.51
2023-05-19T23:36:41.103Z,18.50
2023-05-19T23:39:13.069Z,18.50
2023-05-19T23:41:45.045Z,18.44
2023-05-19T23:44:18.533Z,18.40
2023-05-19T23:46:50.619Z,18.39
2023-05-19T23:49:22.670Z,18.39
2023-05-19T23:51:54.632Z,18.36
2023-05-19T23:54:26.790Z,18.38
2023-05-19T23:56:59.401Z,18.34
2023-05-19T23:59:31.285Z,18.31
